sensor_id;sensor_type;location;lat;lon;timestamp;temperature;humidity
73576;DHT22;61859;49.204;8.140;2023-07-31T00:00:07;17.60;77.10
73576;DHT22;61859;49.204;8.140;2023-07-31T00:02:34;17.70;77.20
73576;DHT22;61859;49.204;8.140;2023-07-31T00:05:00;17.70;76.90
73576;DHT22;61859;49.204;8.140;2023-07-31T00:07:26;17.60;77.00
73576;DHT22;61859;49.204;8.140;2023-07-31T00:09:51;17.50;76.90
73576;DHT22;61859;49.204;8.140;2023-07-31T00:12:19;17.50;76.80
73576;DHT22;61859;49.204;8.140;2023-07-31T00:14:44;17.60;76.80
73576;DHT22;61859;49.204;8.140;2023-07-31T00:17:10;17.50;76.70
73576;DHT22;61859;49.204;8.140;2023-07-31T00:19:35;17.60;76.40
73576;DHT22;61859;49.204;8.140;2023-07-31T00:22:01;17.60;76.30
73576;DHT22;61859;49.204;8.140;2023-07-31T00:24:26;17.50;76.50
73576;DHT22;61859;49.204;8.140;2023-07-31T00:26:52;17.60;76.30
73576;DHT22;61859;49.204;8.140;2023-07-31T00:29:18;17.60;76.10
73576;DHT22;61859;49.204;8.140;2023-07-31T00:31:43;17.70;76.00
73576;DHT22;61859;49.204;8.140;2023-07-31T00:34:09;17.60;75.80
73576;DHT22;61859;49.204;8.140;2023-07-31T00:36:34;17.60;75.80
73576;DHT22;61859;49.204;8.140;2023-07-31T00:39:00;17.60;75.90
73576;DHT22;61859;49.204;8.140;2023-07-31T00:41:25;17.50;75.90
73576;DHT22;61859;49.204;8.140;2023-07-31T00:43:51;17.60;75.90
73576;DHT22;61859;49.204;8.140;2023-07-31T00:46:17;17.70;76.00
73576;DHT22;61859;49.204;8.140;2023-07-31T00:48:42;17.70;76.10
73576;DHT22;61859;49.204;8.140;2023-07-31T00:51:08;17.70;76.30
73576;DHT22;61859;49.204;8.140;2023-07-31T00:53:35;17.70;76.10
73576;DHT22;61859;49.204;8.140;2023-07-31T00:56:00;17.60;75.90
73576;DHT22;61859;49.204;8.140;2023-07-31T00:58:26;17.70;76.20
73576;DHT22;61859;49.204;8.140;2023-07-31T01:00:52;17.70;76.30
73576;DHT22;61859;49.204;8.140;2023-07-31T01:03:17;17.70;76.00
73576;DHT22;61859;49.204;8.140;2023-07-31T01:05:53;17.70;76.30
73576;DHT22;61859;49.204;8.140;2023-07-31T01:08:42;17.60;76.40
73576;DHT22;61859;49.204;8.140;2023-07-31T01:11:30;17.70;76.40
73576;DHT22;61859;49.204;8.140;2023-07-31T01:13:57;17.70;76.60
73576;DHT22;61859;49.204;8.140;2023-07-31T01:16:22;17.60;77.00
73576;DHT22;61859;49.204;8.140;2023-07-31T01:18:48;17.60;76.70
73576;DHT22;61859;49.204;8.140;2023-07-31T01:26:40;17.60;76.50
73576;DHT22;61859;49.204;8.140;2023-07-31T01:29:20;17.60;76.90
73576;DHT22;61859;49.204;8.140;2023-07-31T01:31:50;17.60;76.90
73576;DHT22;61859;49.204;8.140;2023-07-31T01:34:19;17.50;77.10
73576;DHT22;61859;49.204;8.140;2023-07-31T01:36:46;17.50;77.40
73576;DHT22;61859;49.204;8.140;2023-07-31T01:39:11;17.50;77.80
73576;DHT22;61859;49.204;8.140;2023-07-31T01:41:37;17.40;77.90
73576;DHT22;61859;49.204;8.140;2023-07-31T01:44:02;17.40;77.80
73576;DHT22;61859;49.204;8.140;2023-07-31T01:46:28;17.40;78.00
73576;DHT22;61859;49.204;8.140;2023-07-31T01:48:54;17.30;78.00
73576;DHT22;61859;49.204;8.140;2023-07-31T01:51:20;17.30;77.70
73576;DHT22;61859;49.204;8.140;2023-07-31T01:53:45;17.30;77.50
73576;DHT22;61859;49.204;8.140;2023-07-31T01:56:11;17.30;77.60
73576;DHT22;61859;49.204;8.140;2023-07-31T01:58:36;17.40;77.50
73576;DHT22;61859;49.204;8.140;2023-07-31T02:01:02;17.40;77.50
73576;DHT22;61859;49.204;8.140;2023-07-31T02:03:27;17.20;77.70
73576;DHT22;61859;49.204;8.140;2023-07-31T02:05:54;17.40;77.40
73576;DHT22;61859;49.204;8.140;2023-07-31T02:08:19;17.40;77.70
73576;DHT22;61859;49.204;8.140;2023-07-31T02:10:45;17.30;77.60
73576;DHT22;61859;49.204;8.140;2023-07-31T02:13:10;17.30;77.80
73576;DHT22;61859;49.204;8.140;2023-07-31T02:15:36;17.40;77.70
73576;DHT22;61859;49.204;8.140;2023-07-31T02:18:02;17.40;77.70
73576;DHT22;61859;49.204;8.140;2023-07-31T02:20:27;17.40;78.10
73576;DHT22;61859;49.204;8.140;2023-07-31T02:22:53;17.40;77.70
73576;DHT22;61859;49.204;8.140;2023-07-31T02:25:18;17.40;78.10
73576;DHT22;61859;49.204;8.140;2023-07-31T02:27:44;17.30;77.90
73576;DHT22;61859;49.204;8.140;2023-07-31T02:30:10;17.40;78.50
73576;DHT22;61859;49.204;8.140;2023-07-31T02:32:36;17.20;78.60
73576;DHT22;61859;49.204;8.140;2023-07-31T02:35:01;17.30;78.70
73576;DHT22;61859;49.204;8.140;2023-07-31T02:37:27;17.10;78.80
73576;DHT22;61859;49.204;8.140;2023-07-31T02:39:54;17.20;78.70
73576;DHT22;61859;49.204;8.140;2023-07-31T02:42:19;17.20;79.00
73576;DHT22;61859;49.204;8.140;2023-07-31T02:44:45;17.20;78.90
73576;DHT22;61859;49.204;8.140;2023-07-31T02:47:10;17.20;78.90
73576;DHT22;61859;49.204;8.140;2023-07-31T02:49:36;17.10;79.40
73576;DHT22;61859;49.204;8.140;2023-07-31T02:52:01;17.20;78.60
73576;DHT22;61859;49.204;8.140;2023-07-31T02:54:27;17.20;78.90
73576;DHT22;61859;49.204;8.140;2023-07-31T02:56:53;17.10;78.70
73576;DHT22;61859;49.204;8.140;2023-07-31T02:59:18;17.20;78.50
73576;DHT22;61859;49.204;8.140;2023-07-31T03:01:44;17.10;78.70
73576;DHT22;61859;49.204;8.140;2023-07-31T03:04:09;17.10;79.20
73576;DHT22;61859;49.204;8.140;2023-07-31T03:06:35;17.20;79.00
73576;DHT22;61859;49.204;8.140;2023-07-31T03:09:00;17.10;78.90
73576;DHT22;61859;49.204;8.140;2023-07-31T03:11:26;17.10;78.70
73576;DHT22;61859;49.204;8.140;2023-07-31T03:13:51;17.10;79.00
73576;DHT22;61859;49.204;8.140;2023-07-31T03:16:17;17.00;78.80
73576;DHT22;61859;49.204;8.140;2023-07-31T03:18:43;17.10;78.90
73576;DHT22;61859;49.204;8.140;2023-07-31T03:21:08;17.10;79.20
73576;DHT22;61859;49.204;8.140;2023-07-31T03:23:34;17.10;78.90
73576;DHT22;61859;49.204;8.140;2023-07-31T03:26:01;17.10;79.00
73576;DHT22;61859;49.204;8.140;2023-07-31T03:28:28;17.10;79.00
73576;DHT22;61859;49.204;8.140;2023-07-31T03:30:54;17.10;79.40
73576;DHT22;61859;49.204;8.140;2023-07-31T03:33:19;17.00;79.40
73576;DHT22;61859;49.204;8.140;2023-07-31T03:35:45;17.00;79.60
73576;DHT22;61859;49.204;8.140;2023-07-31T03:38:11;17.10;79.80
73576;DHT22;61859;49.204;8.140;2023-07-31T03:40:36;17.00;80.00
73576;DHT22;61859;49.204;8.140;2023-07-31T03:43:02;17.10;79.80
73576;DHT22;61859;49.204;8.140;2023-07-31T03:45:27;17.00;80.00
73576;DHT22;61859;49.204;8.140;2023-07-31T03:47:53;17.10;80.00
73576;DHT22;61859;49.204;8.140;2023-07-31T03:50:20;17.00;80.00
73576;DHT22;61859;49.204;8.140;2023-07-31T03:52:45;17.10;80.20
73576;DHT22;61859;49.204;8.140;2023-07-31T03:55:11;17.00;80.10
73576;DHT22;61859;49.204;8.140;2023-07-31T03:57:37;17.00;80.40
73576;DHT22;61859;49.204;8.140;2023-07-31T04:00:02;16.90;80.60
73576;DHT22;61859;49.204;8.140;2023-07-31T04:02:28;17.00;80.70
73576;DHT22;61859;49.204;8.140;2023-07-31T04:04:54;16.90;80.70
73576;DHT22;61859;49.204;8.140;2023-07-31T04:07:20;16.90;80.80
73576;DHT22;61859;49.204;8.140;2023-07-31T04:09:45;16.90;80.80
73576;DHT22;61859;49.204;8.140;2023-07-31T04:12:11;16.90;81.00
73576;DHT22;61859;49.204;8.140;2023-07-31T04:14:37;16.90;80.90
73576;DHT22;61859;49.204;8.140;2023-07-31T04:17:02;16.80;81.00
73576;DHT22;61859;49.204;8.140;2023-07-31T04:19:28;16.90;81.40
73576;DHT22;61859;49.204;8.140;2023-07-31T04:21:53;16.90;81.50
73576;DHT22;61859;49.204;8.140;2023-07-31T04:24:19;16.90;81.40
73576;DHT22;61859;49.204;8.140;2023-07-31T04:26:50;16.80;81.60
73576;DHT22;61859;49.204;8.140;2023-07-31T04:29:15;16.90;81.60
73576;DHT22;61859;49.204;8.140;2023-07-31T04:31:41;16.90;81.40
73576;DHT22;61859;49.204;8.140;2023-07-31T04:34:07;16.90;81.50
73576;DHT22;61859;49.204;8.140;2023-07-31T04:36:33;16.90;81.20
73576;DHT22;61859;49.204;8.140;2023-07-31T04:38:59;16.80;81.60
73576;DHT22;61859;49.204;8.140;2023-07-31T04:41:25;16.90;81.40
73576;DHT22;61859;49.204;8.140;2023-07-31T04:43:50;16.80;81.40
73576;DHT22;61859;49.204;8.140;2023-07-31T04:46:16;16.90;81.60
73576;DHT22;61859;49.204;8.140;2023-07-31T04:48:42;16.80;81.70
73576;DHT22;61859;49.204;8.140;2023-07-31T04:51:08;16.80;81.50
73576;DHT22;61859;49.204;8.140;2023-07-31T04:53:35;16.90;81.50
73576;DHT22;61859;49.204;8.140;2023-07-31T04:56:00;16.80;81.50
73576;DHT22;61859;49.204;8.140;2023-07-31T04:58:26;17.00;81.60
73576;DHT22;61859;49.204;8.140;2023-07-31T05:00:51;17.00;81.50
73576;DHT22;61859;49.204;8.140;2023-07-31T05:03:17;17.10;81.30
73576;DHT22;61859;49.204;8.140;2023-07-31T05:05:43;17.10;81.30
73576;DHT22;61859;49.204;8.140;2023-07-31T05:08:08;17.10;81.00
73576;DHT22;61859;49.204;8.140;2023-07-31T05:10:34;17.20;80.90
73576;DHT22;61859;49.204;8.140;2023-07-31T05:13:00;17.20;81.00
73576;DHT22;61859;49.204;8.140;2023-07-31T05:15:25;17.30;80.20
73576;DHT22;61859;49.204;8.140;2023-07-31T05:17:51;17.40;80.00
73576;DHT22;61859;49.204;8.140;2023-07-31T05:20:16;17.50;80.00
73576;DHT22;61859;49.204;8.140;2023-07-31T05:22:42;17.50;80.20
73576;DHT22;61859;49.204;8.140;2023-07-31T05:25:08;17.60;80.00
73576;DHT22;61859;49.204;8.140;2023-07-31T05:27:33;17.80;80.10
73576;DHT22;61859;49.204;8.140;2023-07-31T05:29:59;17.90;79.10
73576;DHT22;61859;49.204;8.140;2023-07-31T05:32:25;18.00;78.20
73576;DHT22;61859;49.204;8.140;2023-07-31T05:34:51;18.10;78.70
73576;DHT22;61859;49.204;8.140;2023-07-31T05:37:17;18.20;77.80
73576;DHT22;61859;49.204;8.140;2023-07-31T05:39:43;18.40;77.60
73576;DHT22;61859;49.204;8.140;2023-07-31T05:42:08;18.50;77.30
73576;DHT22;61859;49.204;8.140;2023-07-31T05:44:34;18.60;77.40
73576;DHT22;61859;49.204;8.140;2023-07-31T05:46:59;18.80;77.20
73576;DHT22;61859;49.204;8.140;2023-07-31T05:49:25;18.80;76.00
73576;DHT22;61859;49.204;8.140;2023-07-31T05:51:51;18.90;75.70
73576;DHT22;61859;49.204;8.140;2023-07-31T05:54:16;19.00;74.70
73576;DHT22;61859;49.204;8.140;2023-07-31T05:56:42;19.10;75.40
73576;DHT22;61859;49.204;8.140;2023-07-31T05:59:09;19.20;75.10
73576;DHT22;61859;49.204;8.140;2023-07-31T06:01:35;19.30;74.90
73576;DHT22;61859;49.204;8.140;2023-07-31T06:04:01;19.40;73.60
73576;DHT22;61859;49.204;8.140;2023-07-31T06:06:28;19.50;74.10
73576;DHT22;61859;49.204;8.140;2023-07-31T06:08:54;19.50;72.80
73576;DHT22;61859;49.204;8.140;2023-07-31T06:11:20;19.50;73.00
73576;DHT22;61859;49.204;8.140;2023-07-31T06:13:46;19.50;73.00
73576;DHT22;61859;49.204;8.140;2023-07-31T06:16:13;19.50;72.60
73576;DHT22;61859;49.204;8.140;2023-07-31T06:18:39;19.50;72.10
73576;DHT22;61859;49.204;8.140;2023-07-31T06:21:05;19.40;73.30
73576;DHT22;61859;49.204;8.140;2023-07-31T06:23:30;19.40;73.40
73576;DHT22;61859;49.204;8.140;2023-07-31T06:25:56;19.30;73.20
73576;DHT22;61859;49.204;8.140;2023-07-31T06:28:26;19.30;73.70
73576;DHT22;61859;49.204;8.140;2023-07-31T06:30:52;19.20;74.10
73576;DHT22;61859;49.204;8.140;2023-07-31T06:33:17;19.20;73.90
73576;DHT22;61859;49.204;8.140;2023-07-31T06:35:43;19.10;74.30
73576;DHT22;61859;49.204;8.140;2023-07-31T06:38:09;19.10;73.80
73576;DHT22;61859;49.204;8.140;2023-07-31T06:40:34;19.10;74.50
73576;DHT22;61859;49.204;8.140;2023-07-31T06:43:00;19.10;74.30
73576;DHT22;61859;49.204;8.140;2023-07-31T06:45:31;19.10;74.50
73576;DHT22;61859;49.204;8.140;2023-07-31T06:47:57;19.10;74.50
73576;DHT22;61859;49.204;8.140;2023-07-31T06:50:27;19.10;74.20
73576;DHT22;61859;49.204;8.140;2023-07-31T06:52:52;19.10;74.00
73576;DHT22;61859;49.204;8.140;2023-07-31T06:55:19;19.10;74.10
73576;DHT22;61859;49.204;8.140;2023-07-31T06:57:46;19.10;74.20
73576;DHT22;61859;49.204;8.140;2023-07-31T07:00:12;19.20;74.50
73576;DHT22;61859;49.204;8.140;2023-07-31T07:02:38;19.30;74.10
73576;DHT22;61859;49.204;8.140;2023-07-31T07:05:04;19.60;73.70
73576;DHT22;61859;49.204;8.140;2023-07-31T07:07:29;19.90;72.30
73576;DHT22;61859;49.204;8.140;2023-07-31T07:09:55;20.30;71.50
73576;DHT22;61859;49.204;8.140;2023-07-31T07:12:20;20.60;68.80
73576;DHT22;61859;49.204;8.140;2023-07-31T07:14:46;20.80;69.10
73576;DHT22;61859;49.204;8.140;2023-07-31T07:17:13;20.80;69.00
73576;DHT22;61859;49.204;8.140;2023-07-31T07:19:40;20.90;67.90
73576;DHT22;61859;49.204;8.140;2023-07-31T07:22:07;20.80;68.30
73576;DHT22;61859;49.204;8.140;2023-07-31T07:24:32;21.10;68.10
73576;DHT22;61859;49.204;8.140;2023-07-31T07:26:58;21.50;66.10
73576;DHT22;61859;49.204;8.140;2023-07-31T07:29:24;21.70;65.60
73576;DHT22;61859;49.204;8.140;2023-07-31T07:31:49;21.90;64.20
73576;DHT22;61859;49.204;8.140;2023-07-31T07:34:14;22.00;64.10
73576;DHT22;61859;49.204;8.140;2023-07-31T07:36:40;21.80;63.80
73576;DHT22;61859;49.204;8.140;2023-07-31T07:39:05;21.70;64.60
73576;DHT22;61859;49.204;8.140;2023-07-31T07:41:31;21.60;65.30
73576;DHT22;61859;49.204;8.140;2023-07-31T07:43:56;21.70;65.70
73576;DHT22;61859;49.204;8.140;2023-07-31T07:46:22;21.60;64.70
73576;DHT22;61859;49.204;8.140;2023-07-31T07:48:48;21.50;65.60
73576;DHT22;61859;49.204;8.140;2023-07-31T07:51:14;21.40;65.20
73576;DHT22;61859;49.204;8.140;2023-07-31T07:53:39;21.30;66.10
73576;DHT22;61859;49.204;8.140;2023-07-31T07:56:05;21.20;65.40
73576;DHT22;61859;49.204;8.140;2023-07-31T07:58:30;21.10;66.00
73576;DHT22;61859;49.204;8.140;2023-07-31T08:00:56;21.00;66.10
73576;DHT22;61859;49.204;8.140;2023-07-31T08:03:21;21.10;66.20
73576;DHT22;61859;49.204;8.140;2023-07-31T08:05:47;21.00;66.20
73576;DHT22;61859;49.204;8.140;2023-07-31T08:08:16;21.00;65.90
73576;DHT22;61859;49.204;8.140;2023-07-31T08:10:42;21.00;66.30
73576;DHT22;61859;49.204;8.140;2023-07-31T08:13:10;21.40;66.00
73576;DHT22;61859;49.204;8.140;2023-07-31T08:15:36;21.50;64.20
73576;DHT22;61859;49.204;8.140;2023-07-31T08:18:02;21.60;64.90
73576;DHT22;61859;49.204;8.140;2023-07-31T08:20:28;21.70;64.50
73576;DHT22;61859;49.204;8.140;2023-07-31T08:22:53;21.80;64.10
73576;DHT22;61859;49.204;8.140;2023-07-31T08:25:19;22.00;63.00
73576;DHT22;61859;49.204;8.140;2023-07-31T08:27:44;22.20;63.60
73576;DHT22;61859;49.204;8.140;2023-07-31T08:30:11;22.60;63.70
73576;DHT22;61859;49.204;8.140;2023-07-31T08:32:37;23.10;61.70
73576;DHT22;61859;49.204;8.140;2023-07-31T08:35:03;23.30;59.50
73576;DHT22;61859;49.204;8.140;2023-07-31T08:37:28;23.20;59.50
73576;DHT22;61859;49.204;8.140;2023-07-31T08:39:54;23.20;59.10
73576;DHT22;61859;49.204;8.140;2023-07-31T08:42:20;23.10;60.20
73576;DHT22;61859;49.204;8.140;2023-07-31T08:44:46;23.20;61.00
73576;DHT22;61859;49.204;8.140;2023-07-31T08:47:12;23.50;59.20
73576;DHT22;61859;49.204;8.140;2023-07-31T08:49:39;23.50;60.00
73576;DHT22;61859;49.204;8.140;2023-07-31T08:52:06;23.60;59.20
73576;DHT22;61859;49.204;8.140;2023-07-31T08:54:32;23.80;59.10
73576;DHT22;61859;49.204;8.140;2023-07-31T08:56:59;24.10;58.10
73576;DHT22;61859;49.204;8.140;2023-07-31T08:59:27;24.10;58.50
73576;DHT22;61859;49.204;8.140;2023-07-31T09:01:55;24.10;58.70
73576;DHT22;61859;49.204;8.140;2023-07-31T09:04:23;24.30;57.70
73576;DHT22;61859;49.204;8.140;2023-07-31T09:06:49;24.30;57.40
73576;DHT22;61859;49.204;8.140;2023-07-31T09:09:15;24.30;58.10
73576;DHT22;61859;49.204;8.140;2023-07-31T09:11:41;24.20;57.60
73576;DHT22;61859;49.204;8.140;2023-07-31T09:14:08;24.40;57.90
73576;DHT22;61859;49.204;8.140;2023-07-31T09:16:34;24.30;57.90
73576;DHT22;61859;49.204;8.140;2023-07-31T09:19:00;24.20;57.70
73576;DHT22;61859;49.204;8.140;2023-07-31T09:21:27;24.00;58.40
73576;DHT22;61859;49.204;8.140;2023-07-31T09:23:53;23.80;59.10
73576;DHT22;61859;49.204;8.140;2023-07-31T09:26:36;23.70;59.90
73576;DHT22;61859;49.204;8.140;2023-07-31T09:29:04;23.70;58.40
73576;DHT22;61859;49.204;8.140;2023-07-31T09:31:38;23.90;59.80
73576;DHT22;61859;49.204;8.140;2023-07-31T09:34:03;23.90;58.70
73576;DHT22;61859;49.204;8.140;2023-07-31T09:36:29;23.90;58.90
73576;DHT22;61859;49.204;8.140;2023-07-31T09:39:02;23.90;58.70
73576;DHT22;61859;49.204;8.140;2023-07-31T09:41:28;24.10;57.50
73576;DHT22;61859;49.204;8.140;2023-07-31T09:43:54;24.00;57.60
73576;DHT22;61859;49.204;8.140;2023-07-31T09:46:21;24.00;57.40
73576;DHT22;61859;49.204;8.140;2023-07-31T09:48:47;24.10;58.00
73576;DHT22;61859;49.204;8.140;2023-07-31T09:51:12;24.20;58.20
73576;DHT22;61859;49.204;8.140;2023-07-31T09:53:38;24.30;55.80
73576;DHT22;61859;49.204;8.140;2023-07-31T09:56:04;24.20;57.50
73576;DHT22;61859;49.204;8.140;2023-07-31T09:58:33;24.20;56.50
73576;DHT22;61859;49.204;8.140;2023-07-31T10:01:00;24.20;57.80
73576;DHT22;61859;49.204;8.140;2023-07-31T10:03:27;24.40;57.10
73576;DHT22;61859;49.204;8.140;2023-07-31T10:05:56;24.40;56.10
73576;DHT22;61859;49.204;8.140;2023-07-31T10:08:28;24.70;56.00
73576;DHT22;61859;49.204;8.140;2023-07-31T10:10:58;24.80;55.90
73576;DHT22;61859;49.204;8.140;2023-07-31T10:13:24;25.00;56.50
73576;DHT22;61859;49.204;8.140;2023-07-31T10:15:50;25.00;54.00
73576;DHT22;61859;49.204;8.140;2023-07-31T10:18:18;24.90;55.40
73576;DHT22;61859;49.204;8.140;2023-07-31T10:20:44;25.10;54.10
73576;DHT22;61859;49.204;8.140;2023-07-31T10:23:10;25.00;53.80
73576;DHT22;61859;49.204;8.140;2023-07-31T10:25:37;24.70;54.10
73576;DHT22;61859;49.204;8.140;2023-07-31T10:28:03;24.40;55.80
73576;DHT22;61859;49.204;8.140;2023-07-31T10:30:30;24.20;54.90
73576;DHT22;61859;49.204;8.140;2023-07-31T10:32:58;24.30;54.90
73576;DHT22;61859;49.204;8.140;2023-07-31T10:35:24;24.50;55.80
73576;DHT22;61859;49.204;8.140;2023-07-31T10:37:50;25.30;56.00
73576;DHT22;61859;49.204;8.140;2023-07-31T10:40:27;25.80;53.80
73576;DHT22;61859;49.204;8.140;2023-07-31T10:42:57;25.90;50.60
73576;DHT22;61859;49.204;8.140;2023-07-31T10:45:37;25.80;50.70
73576;DHT22;61859;49.204;8.140;2023-07-31T10:48:03;25.70;51.10
73576;DHT22;61859;49.204;8.140;2023-07-31T10:50:30;25.60;50.40
73576;DHT22;61859;49.204;8.140;2023-07-31T10:52:58;25.40;51.00
73576;DHT22;61859;49.204;8.140;2023-07-31T10:55:41;25.20;51.50
73576;DHT22;61859;49.204;8.140;2023-07-31T10:58:08;24.80;53.70
73576;DHT22;61859;49.204;8.140;2023-07-31T11:00:34;24.70;54.00
73576;DHT22;61859;49.204;8.140;2023-07-31T11:08:34;24.80;53.30
73576;DHT22;61859;49.204;8.140;2023-07-31T11:13:33;24.30;54.20
73576;DHT22;61859;49.204;8.140;2023-07-31T11:16:00;24.30;54.40
73576;DHT22;61859;49.204;8.140;2023-07-31T11:18:26;24.30;54.40
73576;DHT22;61859;49.204;8.140;2023-07-31T11:20:52;24.50;53.90
73576;DHT22;61859;49.204;8.140;2023-07-31T11:23:19;24.50;53.90
73576;DHT22;61859;49.204;8.140;2023-07-31T11:25:45;24.40;54.10
73576;DHT22;61859;49.204;8.140;2023-07-31T11:28:12;24.30;54.90
73576;DHT22;61859;49.204;8.140;2023-07-31T11:30:39;24.10;54.90
73576;DHT22;61859;49.204;8.140;2023-07-31T11:33:07;24.10;55.80
73576;DHT22;61859;49.204;8.140;2023-07-31T11:35:34;24.30;55.50
73576;DHT22;61859;49.204;8.140;2023-07-31T11:38:01;24.40;54.50
73576;DHT22;61859;49.204;8.140;2023-07-31T11:40:27;24.40;54.40
73576;DHT22;61859;49.204;8.140;2023-07-31T11:42:59;24.50;54.60
73576;DHT22;61859;49.204;8.140;2023-07-31T11:45:30;24.50;54.20
73576;DHT22;61859;49.204;8.140;2023-07-31T11:47:56;24.60;54.00
73576;DHT22;61859;49.204;8.140;2023-07-31T11:50:23;24.80;53.50
73576;DHT22;61859;49.204;8.140;2023-07-31T11:52:52;25.20;52.70
73576;DHT22;61859;49.204;8.140;2023-07-31T11:55:18;25.70;51.90
73576;DHT22;61859;49.204;8.140;2023-07-31T11:57:45;25.80;51.20
73576;DHT22;61859;49.204;8.140;2023-07-31T12:00:13;25.90;52.00
73576;DHT22;61859;49.204;8.140;2023-07-31T12:02:39;26.20;50.90
73576;DHT22;61859;49.204;8.140;2023-07-31T12:05:10;26.20;50.80
73576;DHT22;61859;49.204;8.140;2023-07-31T12:07:50;26.00;51.60
73576;DHT22;61859;49.204;8.140;2023-07-31T12:10:30;26.20;51.40
73576;DHT22;61859;49.204;8.140;2023-07-31T12:15:43;26.20;50.70
73576;DHT22;61859;49.204;8.140;2023-07-31T12:18:14;26.40;50.60
73576;DHT22;61859;49.204;8.140;2023-07-31T12:20:48;26.70;50.60
73576;DHT22;61859;49.204;8.140;2023-07-31T12:23:22;26.90;49.80
73576;DHT22;61859;49.204;8.140;2023-07-31T12:26:01;26.90;49.50
73576;DHT22;61859;49.204;8.140;2023-07-31T12:28:27;26.90;48.60
73576;DHT22;61859;49.204;8.140;2023-07-31T12:30:57;26.70;49.40
73576;DHT22;61859;49.204;8.140;2023-07-31T12:33:24;26.50;50.60
73576;DHT22;61859;49.204;8.140;2023-07-31T12:35:55;26.30;51.20
73576;DHT22;61859;49.204;8.140;2023-07-31T12:38:22;26.10;50.30
73576;DHT22;61859;49.204;8.140;2023-07-31T12:40:47;25.90;52.20
73576;DHT22;61859;49.204;8.140;2023-07-31T12:43:13;25.80;51.40
73576;DHT22;61859;49.204;8.140;2023-07-31T12:45:38;25.60;52.40
73576;DHT22;61859;49.204;8.140;2023-07-31T12:48:04;25.40;52.20
73576;DHT22;61859;49.204;8.140;2023-07-31T12:50:30;25.40;52.80
73576;DHT22;61859;49.204;8.140;2023-07-31T12:52:57;25.30;53.10
73576;DHT22;61859;49.204;8.140;2023-07-31T12:55:22;25.50;53.30
73576;DHT22;61859;49.204;8.140;2023-07-31T12:57:49;25.50;52.60
73576;DHT22;61859;49.204;8.140;2023-07-31T13:00:15;25.30;53.30
73576;DHT22;61859;49.204;8.140;2023-07-31T13:02:41;25.10;53.90
73576;DHT22;61859;49.204;8.140;2023-07-31T13:05:06;25.00;54.60
73576;DHT22;61859;49.204;8.140;2023-07-31T13:07:32;25.10;54.40
73576;DHT22;61859;49.204;8.140;2023-07-31T13:09:57;25.30;54.20
73576;DHT22;61859;49.204;8.140;2023-07-31T13:12:23;25.60;53.50
73576;DHT22;61859;49.204;8.140;2023-07-31T13:14:49;25.70;53.90
73576;DHT22;61859;49.204;8.140;2023-07-31T13:17:14;25.90;52.40
73576;DHT22;61859;49.204;8.140;2023-07-31T13:19:40;25.80;52.70
73576;DHT22;61859;49.204;8.140;2023-07-31T13:22:06;25.80;53.00
73576;DHT22;61859;49.204;8.140;2023-07-31T13:24:31;25.80;52.90
73576;DHT22;61859;49.204;8.140;2023-07-31T13:26:57;25.80;52.90
73576;DHT22;61859;49.204;8.140;2023-07-31T13:29:22;26.00;52.80
73576;DHT22;61859;49.204;8.140;2023-07-31T13:31:49;26.40;52.60
73576;DHT22;61859;49.204;8.140;2023-07-31T13:34:14;26.70;52.00
73576;DHT22;61859;49.204;8.140;2023-07-31T13:36:40;26.60;52.00
73576;DHT22;61859;49.204;8.140;2023-07-31T13:39:06;26.50;52.70
73576;DHT22;61859;49.204;8.140;2023-07-31T13:41:32;26.10;52.30
73576;DHT22;61859;49.204;8.140;2023-07-31T13:43:58;25.70;53.80
73576;DHT22;61859;49.204;8.140;2023-07-31T13:46:23;25.50;54.10
73576;DHT22;61859;49.204;8.140;2023-07-31T13:48:51;25.20;53.90
73576;DHT22;61859;49.204;8.140;2023-07-31T13:51:16;25.10;55.10
73576;DHT22;61859;49.204;8.140;2023-07-31T13:53:42;24.90;55.40
73576;DHT22;61859;49.204;8.140;2023-07-31T13:56:07;24.70;55.70
73576;DHT22;61859;49.204;8.140;2023-07-31T13:58:33;24.50;56.50
73576;DHT22;61859;49.204;8.140;2023-07-31T14:00:59;24.40;56.70
73576;DHT22;61859;49.204;8.140;2023-07-31T14:03:24;24.30;56.80
73576;DHT22;61859;49.204;8.140;2023-07-31T14:05:51;24.30;57.70
73576;DHT22;61859;49.204;8.140;2023-07-31T14:08:16;24.30;56.80
73576;DHT22;61859;49.204;8.140;2023-07-31T14:10:42;24.30;56.50
73576;DHT22;61859;49.204;8.140;2023-07-31T14:13:07;24.20;57.30
73576;DHT22;61859;49.204;8.140;2023-07-31T14:15:33;24.10;57.30
73576;DHT22;61859;49.204;8.140;2023-07-31T14:18:01;24.30;57.40
73576;DHT22;61859;49.204;8.140;2023-07-31T14:20:26;24.10;58.00
73576;DHT22;61859;49.204;8.140;2023-07-31T14:22:52;24.10;58.00
73576;DHT22;61859;49.204;8.140;2023-07-31T14:25:17;24.00;58.20
73576;DHT22;61859;49.204;8.140;2023-07-31T14:27:43;23.90;58.80
73576;DHT22;61859;49.204;8.140;2023-07-31T14:30:09;24.00;59.30
73576;DHT22;61859;49.204;8.140;2023-07-31T14:32:34;24.10;59.30
73576;DHT22;61859;49.204;8.140;2023-07-31T14:35:02;24.20;59.50
73576;DHT22;61859;49.204;8.140;2023-07-31T14:37:37;24.30;58.60
73576;DHT22;61859;49.204;8.140;2023-07-31T14:40:03;24.50;58.20
73576;DHT22;61859;49.204;8.140;2023-07-31T14:42:28;24.60;57.60
73576;DHT22;61859;49.204;8.140;2023-07-31T14:44:54;25.00;57.70
73576;DHT22;61859;49.204;8.140;2023-07-31T14:47:19;25.40;56.30
73576;DHT22;61859;49.204;8.140;2023-07-31T14:49:45;25.60;55.50
73576;DHT22;61859;49.204;8.140;2023-07-31T14:52:11;25.70;55.20
73576;DHT22;61859;49.204;8.140;2023-07-31T14:54:36;25.60;55.60
73576;DHT22;61859;49.204;8.140;2023-07-31T14:57:02;25.50;56.00
73576;DHT22;61859;49.204;8.140;2023-07-31T14:59:27;25.60;56.10
73576;DHT22;61859;49.204;8.140;2023-07-31T15:01:53;25.50;55.20
73576;DHT22;61859;49.204;8.140;2023-07-31T15:04:18;25.40;55.30
73576;DHT22;61859;49.204;8.140;2023-07-31T15:06:44;25.20;56.20
73576;DHT22;61859;49.204;8.140;2023-07-31T15:09:10;25.20;56.60
73576;DHT22;61859;49.204;8.140;2023-07-31T15:11:35;25.20;55.80
73576;DHT22;61859;49.204;8.140;2023-07-31T15:14:01;25.00;56.10
73576;DHT22;61859;49.204;8.140;2023-07-31T15:16:26;24.90;57.60
73576;DHT22;61859;49.204;8.140;2023-07-31T15:18:54;24.80;56.70
73576;DHT22;61859;49.204;8.140;2023-07-31T15:21:19;24.80;56.70
73576;DHT22;61859;49.204;8.140;2023-07-31T15:23:45;24.70;57.50
73576;DHT22;61859;49.204;8.140;2023-07-31T15:26:10;24.50;58.30
73576;DHT22;61859;49.204;8.140;2023-07-31T15:28:36;24.30;58.20
73576;DHT22;61859;49.204;8.140;2023-07-31T15:31:03;24.10;58.70
73576;DHT22;61859;49.204;8.140;2023-07-31T15:33:28;23.90;59.20
73576;DHT22;61859;49.204;8.140;2023-07-31T15:35:54;23.90;60.20
73576;DHT22;61859;49.204;8.140;2023-07-31T15:38:21;23.70;60.60
73576;DHT22;61859;49.204;8.140;2023-07-31T15:40:48;23.70;61.50